Celtic Explorer — EIGB — position and weather

sailwx.info

Track history (hours):
 
Tides and Currents Weather Stations Pressure Air Temp Water Temp Dewpoint Dewpoint Depression Visibility Wind Speed Wind Dir Waves Ship Positions

Oceanographic research ship Celtic Explorer (Ireland)

Detailed information on ship capabilities available from University of Delaware's Ocean Information Center.

Last reported at 2019-Feb-14 20:28 UTC. Time now 2019-Feb-16 04:29 UTC.
Position N 54°15' W 010°46'.

Type: . MMSI: 250487000.

Date/timePositionNaut miles runAvg speedWind from/ knotsBaromVisibWave heightAir tempDewpointWater temp
2019-Feb-14 20:28N 54°15' W 010°46'2 3.9
2019-Feb-14 19:58N 54°15' W 010°43'4 5.5
2019-Feb-14 19:15N 54°18' W 010°38'2 4.8
2019-Feb-14 18:46N 54°19' W 010°35'2 4.8
2019-Feb-14 18:26N 54°20' W 010°33'4 4.5
2019-Feb-14 17:30N 54°23' W 010°28'10 5.4
2019-Feb-14 15:44N 54°29' W 010°15'2 6.8
2019-Feb-14 15:23N 54°31' W 010°12'6 7.0
2019-Feb-14 14:34N 54°35' W 010°05'6 8.0
2019-Feb-14 13:52N 54°39' W 009°58'  
2019-Feb-10 12:21N 54°45' W 010°23'24 6.4
2019-Feb-10 08:40N 54°21' W 010°26'4 6.7
2019-Feb-10 08:05N 54°17' W 010°26'6 6.8
2019-Feb-10 07:08N 54°11' W 010°27'1 6.7
2019-Feb-10 06:54N 54°09' W 010°27'3 6.9
2019-Feb-10 06:30N 54°07' W 010°27'6 6.7
2019-Feb-10 05:33N 54°00' W 010°28'2 7.3
2019-Feb-10 05:20N 53°59' W 010°28'2 7.2
2019-Feb-10 05:00N 53°56' W 010°28'6 7.4
2019-Feb-10 04:14N 53°51' W 010°27'2 7.6
2019-Feb-10 04:00N 53°49' W 010°27'4 7.6
2019-Feb-10 03:30N 53°45' W 010°27'4 8.2
2019-Feb-10 03:00N 53°41' W 010°27'5 8.2
2019-Feb-10 02:22N 53°36' W 010°27'12 8.6
2019-Feb-10 01:00N 53°24' W 010°26'6 8.2
2019-Feb-10 00:17N 53°20' W 010°20'4 9.0
2019-Feb-09 23:52N 53°17' W 010°15'6 9.5
2019-Feb-09 23:12N 53°14' W 010°06'  
2019-Feb-05 23:17N 53°12' W 009°52'6 8.4
2019-Feb-05 22:33N 53°14' W 010°02'2 9.8
2019-Feb-05 22:23N 53°15' W 010°04'5 9.7
2019-Feb-05 21:51N 53°18' W 010°11'10 8.8
2019-Feb-05 20:43N 53°26' W 010°21'4 8.7
2019-Feb-05 20:16N 53°30' W 010°22'2 8.9
2019-Feb-05 20:00N 53°32' W 010°23'4 8.5
2019-Feb-05 19:29N 53°37' W 010°24'4 8.1
2019-Feb-05 18:58N 53°41' W 010°24'4 8.3
2019-Feb-05 18:31N 53°45' W 010°24'4 8.8
2019-Feb-05 18:01N 53°49' W 010°24'5 9.0
2019-Feb-05 17:29N 53°54' W 010°24'4 9.0
2019-Feb-05 17:01N 53°58' W 010°25'5 9.2
2019-Feb-05 16:29N 54°03' W 010°24'4 8.3
2019-Feb-05 16:01N 54°07' W 010°22'4 8.9
2019-Feb-05 15:30N 54°10' W 010°18'5 9.5
2019-Feb-05 14:59N 54°15' W 010°13'5 9.5
2019-Feb-05 14:25N 54°19' W 010°09'4 9.1
2019-Feb-05 14:00N 54°22' W 010°05'6 9.2
2019-Feb-05 13:24N 54°27' W 010°00'7 8.7
2019-Feb-05 12:38N 54°33' W 009°55'9 9.1
2019-Feb-05 11:36N 54°41' W 009°45'  
Track history (hours):
 
Tides and Currents Weather Stations Pressure Air Temp Water Temp Dewpoint Dewpoint Depression Visibility Wind Speed Wind Dir Waves Ship Positions

Oceanographic research ship Celtic Explorer (Ireland)

Detailed information on ship capabilities available from University of Delaware's Ocean Information Center.

Last reported at 2019-Feb-14 20:28 UTC. Time now 2019-Feb-16 04:29 UTC.
Position N 54°15' W 010°46'.

Type: . MMSI: 250487000.

Date/timePositionNaut miles runAvg speedWind from/ knotsBaromVisibWave heightAir tempDewpointWater temp
2019-Feb-14 20:28N 54°15' W 010°46'2 3.9
2019-Feb-14 19:58N 54°15' W 010°43'4 5.5
2019-Feb-14 19:15N 54°18' W 010°38'2 4.8
2019-Feb-14 18:46N 54°19' W 010°35'2 4.8
2019-Feb-14 18:26N 54°20' W 010°33'4 4.5
2019-Feb-14 17:30N 54°23' W 010°28'10 5.4
2019-Feb-14 15:44N 54°29' W 010°15'2 6.8
2019-Feb-14 15:23N 54°31' W 010°12'6 7.0
2019-Feb-14 14:34N 54°35' W 010°05'6 8.0
2019-Feb-14 13:52N 54°39' W 009°58'  
2019-Feb-10 12:21N 54°45' W 010°23'24 6.4
2019-Feb-10 08:40N 54°21' W 010°26'4 6.7
2019-Feb-10 08:05N 54°17' W 010°26'6 6.8
2019-Feb-10 07:08N 54°11' W 010°27'1 6.7
2019-Feb-10 06:54N 54°09' W 010°27'3 6.9
2019-Feb-10 06:30N 54°07' W 010°27'6 6.7
2019-Feb-10 05:33N 54°00' W 010°28'2 7.3
2019-Feb-10 05:20N 53°59' W 010°28'2 7.2
2019-Feb-10 05:00N 53°56' W 010°28'6 7.4
2019-Feb-10 04:14N 53°51' W 010°27'2 7.6
2019-Feb-10 04:00N 53°49' W 010°27'4 7.6
2019-Feb-10 03:30N 53°45' W 010°27'4 8.2
2019-Feb-10 03:00N 53°41' W 010°27'5 8.2
2019-Feb-10 02:22N 53°36' W 010°27'12 8.6
2019-Feb-10 01:00N 53°24' W 010°26'6 8.2
2019-Feb-10 00:17N 53°20' W 010°20'4 9.0
2019-Feb-09 23:52N 53°17' W 010°15'6 9.5
2019-Feb-09 23:12N 53°14' W 010°06'  
2019-Feb-05 23:17N 53°12' W 009°52'6 8.4
2019-Feb-05 22:33N 53°14' W 010°02'2 9.8
2019-Feb-05 22:23N 53°15' W 010°04'5 9.7
2019-Feb-05 21:51N 53°18' W 010°11'10 8.8
2019-Feb-05 20:43N 53°26' W 010°21'4 8.7
2019-Feb-05 20:16N 53°30' W 010°22'2 8.9
2019-Feb-05 20:00N 53°32' W 010°23'4 8.5
2019-Feb-05 19:29N 53°37' W 010°24'4 8.1
2019-Feb-05 18:58N 53°41' W 010°24'4 8.3
2019-Feb-05 18:31N 53°45' W 010°24'4 8.8
2019-Feb-05 18:01N 53°49' W 010°24'5 9.0
2019-Feb-05 17:29N 53°54' W 010°24'4 9.0
2019-Feb-05 17:01N 53°58' W 010°25'5 9.2
2019-Feb-05 16:29N 54°03' W 010°24'4 8.3
2019-Feb-05 16:01N 54°07' W 010°22'4 8.9
2019-Feb-05 15:30N 54°10' W 010°18'5 9.5
2019-Feb-05 14:59N 54°15' W 010°13'5 9.5
2019-Feb-05 14:25N 54°19' W 010°09'4 9.1
2019-Feb-05 14:00N 54°22' W 010°05'6 9.2
2019-Feb-05 13:24N 54°27' W 010°00'7 8.7
2019-Feb-05 12:38N 54°33' W 009°55'9 9.1
2019-Feb-05 11:36N 54°41' W 009°45'  

Dump ship's entire track history